KPOF/POF METAR and TAF weather

Enter ICAO airport designator
Station Type Date Time Source
KPOF METAR 2021/02/28 01:53 UTC NOAA

KPOF 280153Z AUTO 00000KT 5SM -RA BR OVC006 11/09 A2999 RMK AO2 CIG 005V010 SLP158 P0004 T01060089


Station Type Date Time Source
KPOF Decoded METAR 2021/02/28 01:53 UTC NOAA

POPLAR BLUFF MUN AIRPORT, MO, United States (KPOF) 36-46N 090-19W 100M
Feb 27, 2021 - 08:53 PM EST / 2021.02.28 0153 UTC
Wind: Calm:0
Visibility: 5 mile(s):0
Sky conditions: overcast
Weather: light rain; mist
Precipitation last hour: 0.04 inches
Temperature: 51.1 F (10.6 C)
Dew Point: 48.0 F (8.9 C)
Relative Humidity: 89%
Pressure (altimeter): 29.99 in. Hg (1015 hPa)
ob: KPOF 280153Z AUTO 00000KT 5SM -RA BR OVC006 11/09 A2999 RMK AO2 CIG 005V010 SLP158 P0004 T01060089
cycle: 2

Station Type Date Time Source
KPOF TAF UTC NOAA

Error!

Example: see airport list